Time;durP1;ratioP1;P1;durP2;ratioP2;P2;SDS_P1;SDS_P2;PMS_P1;PMS_P2;Temp;Humidity;BMP_temperature;BMP_pressure;BME280_temperature;BME280_humidity;BME280_pressure;Samples;Min_cycle;Max_cycle;Signal;HPM_P1;HPM_P2
2022/05/25 00:01:12;;;;;;;7.53;6.25;;;9.40;99.90;;;;;;5112301;28;20051;-80
2022/05/25 00:03:38;;;;;;;12.88;6.63;;;9.40;99.90;;;;;;5112683;28;20039;-80
2022/05/25 00:06:07;;;;;;;8.27;7.32;;;9.50;99.90;;;;;;5095523;28;20483;-80
2022/05/25 00:08:33;;;;;;;8.63;6.57;;;9.50;99.90;;;;;;5115551;28;20040;-79
2022/05/25 00:10:59;;;;;;;7.95;6.63;;;9.50;99.90;;;;;;5131643;27;20505;-79
2022/05/25 00:13:25;;;;;;;8.48;6.70;;;9.50;99.90;;;;;;5127118;27;20035;-79
2022/05/25 00:15:51;;;;;;;10.10;7.40;;;9.50;99.90;;;;;;5116370;28;20131;-79
2022/05/25 00:18:17;;;;;;;12.52;8.40;;;9.60;99.90;;;;;;5111335;27;20124;-79
2022/05/25 00:20:43;;;;;;;9.00;7.50;;;9.60;99.90;;;;;;5138343;27;20085;-79
2022/05/25 00:23:08;;;;;;;10.82;7.30;;;9.60;99.90;;;;;;5122891;27;20039;-79
2022/05/25 00:25:37;;;;;;;11.00;7.60;;;9.60;99.90;;;;;;5115382;28;20047;-79
2022/05/25 00:28:09;;;;;;;9.77;7.25;;;9.60;99.90;;;;;;5117608;27;20391;-79
2022/05/25 00:30:35;;;;;;;14.55;7.45;;;9.60;99.90;;;;;;5117386;28;20073;-79
2022/05/25 00:33:02;;;;;;;14.95;7.95;;;9.60;99.90;;;;;;5119770;27;20035;-79
2022/05/25 00:35:30;;;;;;;10.60;7.90;;;9.60;99.90;;;;;;5131710;27;20426;-79
2022/05/25 00:37:56;;;;;;;10.98;7.72;;;9.60;99.90;;;;;;5136037;27;20074;-79
2022/05/25 00:40:33;;;;;;;9.38;7.65;;;9.60;99.90;;;;;;5128638;27;20066;-79
2022/05/25 00:42:59;;;;;;;9.77;7.55;;;9.60;99.90;;;;;;5115981;27;20054;-79
2022/05/25 00:45:24;;;;;;;8.82;7.10;;;9.60;99.90;;;;;;5115879;28;20039;-79
2022/05/25 00:47:51;;;;;;;9.60;6.72;;;9.60;99.90;;;;;;5115833;28;20047;-79
2022/05/25 00:50:20;;;;;;;8.10;7.07;;;9.60;99.90;;;;;;5120780;27;20354;-79
2022/05/25 00:52:49;;;;;;;8.15;7.45;;;9.60;99.90;;;;;;5135101;27;20062;-79
2022/05/25 00:55:26;;;;;;;10.52;7.32;;;9.60;99.90;;;;;;5135986;27;20398;-79
2022/05/25 00:57:55;;;;;;;8.77;7.90;;;9.60;99.90;;;;;;5102947;28;20074;-79
2022/05/25 01:00:24;;;;;;;13.43;7.70;;;9.60;99.90;;;;;;5128303;27;20058;-79
2022/05/25 01:03:00;;;;;;;11.57;8.63;;;9.60;99.90;;;;;;5137402;27;20562;-79
2022/05/25 01:05:56;;;;;;;14.48;8.40;;;9.60;99.90;;;;;;5120129;27;20043;-79
2022/05/25 01:08:21;;;;;;;;;;;9.70;99.90;;;;;;5109920;27;20495;-79
2022/05/25 01:11:22;;;;;;;13.75;10.27;;;9.60;99.90;;;;;;5138658;27;20022;-79
2022/05/25 01:14:06;;;;;;;12.68;8.02;;;9.60;99.90;;;;;;5136329;27;20352;-79
2022/05/25 01:16:50;;;;;;;11.38;8.43;;;9.60;99.90;;;;;;5150263;27;20042;-79
2022/05/25 01:19:43;;;;;;;11.85;8.40;;;9.60;99.90;;;;;;5157413;27;20039;-79
2022/05/25 01:22:36;;;;;;;12.18;8.00;;;9.60;99.90;;;;;;5136477;27;20054;-79
2022/05/25 01:25:23;;;;;;;14.30;8.73;;;9.60;99.90;;;;;;5156458;27;20508;-79
2022/05/25 01:27:51;;;;;;;11.50;8.52;;;9.60;99.90;;;;;;5120741;27;20053;-79
2022/05/25 01:30:28;;;;;;;10.05;7.93;;;9.60;99.90;;;;;;5153987;27;20041;-79
2022/05/25 01:33:11;;;;;;;11.85;8.73;;;9.60;99.90;;;;;;5157707;27;20038;-79
2022/05/25 01:35:59;;;;;;;16.92;9.63;;;9.60;99.90;;;;;;5121030;27;20047;-79
2022/05/25 01:38:41;;;;;;;13.32;8.73;;;9.50;99.90;;;;;;5119017;27;20051;-79
2022/05/25 01:41:28;;;;;;;13.82;9.30;;;9.60;99.90;;;;;;5121923;27;20050;-79
2022/05/25 01:43:58;;;;;;;12.00;8.63;;;9.50;99.90;;;;;;5117505;27;20118;-79
2022/05/25 01:46:51;;;;;;;11.63;10.25;;;9.50;99.90;;;;;;5152943;27;20045;-79
2022/05/25 01:49:21;;;;;;;11.48;9.32;;;9.50;99.90;;;;;;5117420;27;20047;-79
2022/05/25 01:51:56;;;;;;;16.52;9.38;;;9.50;99.90;;;;;;5126846;27;20030;-79
2022/05/25 01:54:23;;;;;;;;;;;9.50;99.90;;;;;;5157598;27;20454;-79
2022/05/25 01:56:55;;;;;;;12.35;10.30;;;9.50;99.90;;;;;;5136556;27;19993;-79
2022/05/25 01:59:21;;;;;;;13.93;10.43;;;9.40;99.90;;;;;;5135422;27;20065;-79
2022/05/25 02:04:19;;;;;;;13.32;10.77;;;9.40;99.90;;;;;;5144072;27;20047;-79
2022/05/25 02:04:39;;;;;;;16.60;11.27;;;9.40;99.90;;;;;;5137704;27;20066;-79
2022/05/25 02:07:11;;;;;;;15.70;10.90;;;9.40;99.90;;;;;;5126063;27;20043;-80
2022/05/25 02:10:00;;;;;;;15.27;11.70;;;9.40;99.90;;;;;;5136267;27;20142;-80
2022/05/25 02:12:40;;;;;;;18.52;11.63;;;9.40;99.90;;;;;;5126497;27;20134;-79
2022/05/25 02:15:27;;;;;;;17.70;12.38;;;9.40;99.90;;;;;;5135826;27;20615;-80
2022/05/25 02:18:13;;;;;;;15.38;11.27;;;9.40;99.90;;;;;;5139139;27;20103;-79
2022/05/25 02:20:58;;;;;;;17.77;11.88;;;9.40;99.90;;;;;;5138207;27;20050;-80
2022/05/25 02:23:49;;;;;;;17.95;11.88;;;9.40;99.90;;;;;;5136220;27;20084;-79
2022/05/25 02:26:23;;;;;;;18.08;12.93;;;9.40;99.90;;;;;;5099783;27;20043;-79
2022/05/25 02:29:09;;;;;;;18.20;11.48;;;9.40;99.90;;;;;;5134933;27;20068;-79
2022/05/25 02:31:42;;;;;;;19.38;12.50;;;9.40;99.90;;;;;;5136720;27;20087;-79
2022/05/25 02:34:12;;;;;;;14.45;11.80;;;9.40;99.90;;;;;;5156152;27;20558;-80
2022/05/25 02:36:40;;;;;;;20.70;13.65;;;9.40;99.90;;;;;;5151677;27;20077;-79
2022/05/25 02:39:09;;;;;;;20.85;12.00;;;9.40;99.90;;;;;;5099964;27;20067;-79
2022/05/25 02:41:42;;;;;;;17.80;12.88;;;9.40;99.90;;;;;;5116724;27;20481;-80
2022/05/25 02:44:09;;;;;;;18.77;12.65;;;8.40;99.90;;;;;;5135494;27;20047;-80
2022/05/25 02:46:35;;;;;;;23.08;13.65;;;9.30;99.90;;;;;;5135566;27;20100;-80
2022/05/25 02:49:00;;;;;;;20.77;13.60;;;9.30;99.90;;;;;;5137395;27;20047;-80
2022/05/25 02:51:26;;;;;;;17.08;13.18;;;9.30;99.90;;;;;;5135903;27;20082;-80
2022/05/25 02:53:53;;;;;;;15.38;13.68;;;9.30;99.90;;;;;;5133018;27;20039;-80
2022/05/25 02:56:18;;;;;;;17.75;13.05;;;9.30;99.90;;;;;;5135284;27;20043;-80
2022/05/25 02:58:44;;;;;;;25.55;15.55;;;9.30;99.90;;;;;;5132335;27;20069;-80
2022/05/25 03:01:10;;;;;;;17.27;12.77;;;9.30;99.90;;;;;;5134119;27;20139;-80
2022/05/25 03:03:37;;;;;;;23.58;15.27;;;9.30;99.90;;;;;;5134438;27;20184;-80
2022/05/25 03:06:05;;;;;;;28.88;15.52;;;9.30;99.90;;;;;;5134295;27;20417;-80
2022/05/25 03:08:31;;;;;;;18.58;13.85;;;9.30;99.90;;;;;;5116517;27;20049;-80
2022/05/25 03:10:57;;;;;;;24.30;15.68;;;9.20;99.90;;;;;;5134660;27;20122;-80
2022/05/25 03:13:23;;;;;;;17.30;13.00;;;9.30;99.90;;;;;;5120481;27;20155;-80
2022/05/25 03:15:49;;;;;;;17.40;14.00;;;9.30;99.90;;;;;;5120841;27;20064;-79
2022/05/25 03:18:15;;;;;;;24.42;15.70;;;9.20;99.90;;;;;;5116702;27;20050;-79
2022/05/25 03:20:41;;;;;;;17.95;14.32;;;9.20;99.90;;;;;;5115290;27;20436;-79
2022/05/25 03:23:07;;;;;;;20.27;15.20;;;9.20;99.90;;;;;;5134824;27;20114;-80
2022/05/25 03:25:32;;;;;;;18.13;13.52;;;9.20;99.90;;;;;;5099782;27;20047;-80
2022/05/25 03:27:58;;;;;;;19.17;14.43;;;9.20;99.90;;;;;;5115586;27;20039;-79
2022/05/25 03:30:24;;;;;;;20.73;14.55;;;9.20;99.90;;;;;;5124001;27;20070;-80
2022/05/25 03:32:51;;;;;;;23.45;14.50;;;9.20;99.90;;;;;;5155459;27;20462;-80
2022/05/25 03:35:16;;;;;;;18.73;13.27;;;9.20;99.90;;;;;;5104851;27;20041;-80
2022/05/25 03:37:42;;;;;;;19.00;13.82;;;9.20;99.90;;;;;;5134620;27;20039;-80
2022/05/25 03:40:11;;;;;;;20.73;13.85;;;9.20;99.90;;;;;;5116384;27;20075;-80
2022/05/25 03:42:39;;;;;;;21.13;13.57;;;9.20;99.90;;;;;;5133747;27;20074;-80
2022/05/25 03:45:05;;;;;;;18.38;13.45;;;9.20;99.90;;;;;;5116119;27;20043;-80
2022/05/25 03:47:32;;;;;;;18.85;14.00;;;9.20;99.90;;;;;;5116159;28;20054;-80
2022/05/25 03:49:58;;;;;;;21.00;14.07;;;9.20;99.90;;;;;;5125629;27;20554;-80
2022/05/25 03:52:25;;;;;;;21.88;14.45;;;9.20;99.90;;;;;;5155221;27;20038;-80
2022/05/25 03:54:52;;;;;;;20.33;13.57;;;9.20;99.90;;;;;;5134493;27;20043;-80
2022/05/25 03:57:18;;;;;;;16.60;12.70;;;9.20;99.90;;;;;;5154500;27;20046;-80
2022/05/25 03:59:45;;;;;;;24.92;14.93;;;9.20;99.90;;;;;;5154659;27;20104;-80
2022/05/25 04:02:11;;;;;;;18.67;13.57;;;9.20;99.90;;;;;;5116208;28;20428;-80
2022/05/25 04:04:37;;;;;;;17.38;13.30;;;9.20;99.90;;;;;;5126552;27;20129;-80
2022/05/25 04:07:03;;;;;;;20.95;13.30;;;9.20;99.90;;;;;;5152594;27;20438;-79
2022/05/25 04:09:29;;;;;;;16.50;12.60;;;9.20;99.90;;;;;;5134021;27;20127;-80
2022/05/25 04:11:55;;;;;;;23.40;14.25;;;9.30;99.90;;;;;;5154874;27;20103;-80
2022/05/25 04:14:21;;;;;;;20.70;13.38;;;9.30;99.90;;;;;;5153687;27;20042;-80
2022/05/25 04:16:46;;;;;;;24.85;14.50;;;9.30;99.90;;;;;;5134945;27;20046;-80
2022/05/25 04:19:13;;;;;;;26.77;15.13;;;9.40;99.90;;;;;;5125630;28;20043;-80
2022/05/25 04:21:39;;;;;;;24.70;14.50;;;9.40;99.90;;;;;;5151822;27;20054;-79
2022/05/25 04:24:06;;;;;;;16.88;12.45;;;9.40;99.90;;;;;;5135285;27;20043;-80
2022/05/25 04:26:32;;;;;;;25.13;13.93;;;9.40;99.90;;;;;;5120628;28;20039;-80
2022/05/25 04:29:00;;;;;;;16.92;12.88;;;9.50;99.90;;;;;;5134228;28;20039;-80
2022/05/25 04:31:26;;;;;;;17.90;13.70;;;9.50;99.90;;;;;;5130144;27;20035;-80
2022/05/25 04:33:52;;;;;;;16.88;12.75;;;9.50;99.90;;;;;;5109064;28;20083;-80
2022/05/25 04:36:18;;;;;;;20.10;13.18;;;9.60;99.90;;;;;;5145398;27;20038;-80
2022/05/25 04:38:44;;;;;;;17.98;13.25;;;9.70;99.90;;;;;;5153865;27;20098;-80
2022/05/25 04:41:10;;;;;;;18.27;12.45;;;9.70;99.90;;;;;;5152599;27;20031;-80
2022/05/25 04:43:36;;;;;;;16.83;12.80;;;9.80;99.90;;;;;;5119042;27;20039;-80
2022/05/25 04:46:11;;;;;;;17.98;13.23;;;9.80;99.90;;;;;;5143563;27;20051;-80
2022/05/25 04:48:37;;;;;;;17.33;12.75;;;9.90;99.90;;;;;;5124850;27;20071;-80
2022/05/25 04:51:03;;;;;;;15.73;12.38;;;10.00;99.90;;;;;;5124901;28;20043;-80
2022/05/25 04:53:30;;;;;;;15.18;12.60;;;10.10;99.90;;;;;;5123712;27;20047;-80
2022/05/25 04:58:47;;;;;;;22.55;12.23;;;10.20;99.90;;;;;;5125218;27;20102;-80
2022/05/25 05:01:14;;;;;;;16.20;12.07;;;10.30;99.90;;;;;;5157915;27;20047;-80
2022/05/25 05:03:41;;;;;;;15.23;11.98;;;10.40;99.90;;;;;;5158174;27;20041;-80
2022/05/25 05:06:09;;;;;;;12.70;10.70;;;10.50;99.90;;;;;;5138507;27;20050;-80
2022/05/25 05:08:35;;;;;;;15.63;12.43;;;10.60;99.90;;;;;;5119105;27;20158;-81
2022/05/25 05:11:12;;;;;;;19.48;11.77;;;10.70;99.90;;;;;;5118888;27;20613;-81
2022/05/25 05:13:39;;;;;;;14.38;11.10;;;10.70;99.90;;;;;;5118164;27;20054;-81
2022/05/25 05:16:08;;;;;;;16.25;12.02;;;10.80;99.90;;;;;;5137376;27;20099;-80
2022/05/25 05:18:34;;;;;;;20.10;12.15;;;10.80;99.90;;;;;;5137118;27;20043;-80
2022/05/25 05:21:00;;;;;;;16.85;11.05;;;10.90;99.90;;;;;;5117761;27;20067;-80
2022/05/25 05:23:26;;;;;;;18.52;10.98;;;11.00;99.90;;;;;;5137065;27;20047;-80
2022/05/25 05:25:52;;;;;;;14.63;10.82;;;11.00;99.90;;;;;;5137048;27;20054;-80
2022/05/25 05:28:21;;;;;;;20.45;11.55;;;11.10;99.90;;;;;;5153076;27;20162;-80
2022/05/25 05:30:51;;;;;;;12.80;10.93;;;11.20;99.90;;;;;;5136861;27;20478;-80
2022/05/25 05:33:17;;;;;;;12.48;9.88;;;11.30;99.90;;;;;;5118374;27;20502;-80
2022/05/25 05:35:50;;;;;;;15.90;10.65;;;11.40;99.90;;;;;;5100903;27;20050;-81
2022/05/25 05:38:18;;;;;;;16.98;11.38;;;11.50;99.90;;;;;;5136865;27;20070;-81
2022/05/25 05:40:43;;;;;;;15.80;10.98;;;11.50;99.90;;;;;;5135963;27;20043;-79
2022/05/25 05:43:12;;;;;;;12.73;10.10;;;11.60;99.90;;;;;;5132717;27;20039;-80
2022/05/25 05:45:41;;;;;;;12.50;9.80;;;11.70;99.90;;;;;;5153334;27;20472;-80
2022/05/25 05:48:14;;;;;;;12.70;11.00;;;11.80;99.90;;;;;;5100629;27;20480;-79
2022/05/25 05:50:41;;;;;;;15.65;10.13;;;11.90;99.90;;;;;;5136923;27;20098;-80
2022/05/25 05:53:10;;;;;;;15.60;9.63;;;12.00;99.90;;;;;;5137043;27;20047;-80
2022/05/25 05:55:36;;;;;;;11.48;9.05;;;12.10;99.90;;;;;;5117151;27;20035;-81
2022/05/25 05:58:03;;;;;;;14.73;10.27;;;12.20;99.90;;;;;;5118164;27;20051;-80
2022/05/25 06:00:29;;;;;;;15.23;9.50;;;12.20;99.90;;;;;;5150238;27;20046;-80
2022/05/25 06:02:55;;;;;;;15.98;9.85;;;12.30;99.90;;;;;;5134212;27;20058;-80
2022/05/25 06:05:21;;;;;;;15.15;10.85;;;12.40;99.90;;;;;;5115666;27;20404;-80
2022/05/25 06:07:46;;;;;;;11.38;10.15;;;12.50;99.90;;;;;;5136067;27;20039;-80
2022/05/25 06:10:13;;;;;;;18.98;9.52;;;12.50;99.90;;;;;;5135174;27;20046;-80
2022/05/25 06:12:39;;;;;;;18.77;10.80;;;12.60;99.90;;;;;;5117689;27;20131;-80
2022/05/25 06:20:36;;;;;;;16.13;9.50;;;12.90;99.90;;;;;;5137987;27;20039;-80
2022/05/25 06:23:02;;;;;;;17.73;10.10;;;13.00;99.90;;;;;;5120063;27;20043;-79
2022/05/25 06:25:28;;;;;;;11.13;8.50;;;13.00;99.90;;;;;;5137925;27;20508;-80
2022/05/25 06:27:55;;;;;;;16.60;8.50;;;13.20;99.90;;;;;;5137866;27;20038;-80
2022/05/25 06:30:21;;;;;;;12.95;8.02;;;13.20;99.90;;;;;;5119300;27;20043;-80
2022/05/25 06:32:47;;;;;;;12.40;8.55;;;13.30;99.90;;;;;;5117137;27;20047;-80
2022/05/25 06:35:13;;;;;;;13.77;9.13;;;13.40;99.90;;;;;;5135830;27;20042;-80
2022/05/25 06:37:39;;;;;;;14.25;9.65;;;13.50;99.90;;;;;;5134873;27;20054;-80
2022/05/25 06:40:07;;;;;;;13.38;8.68;;;13.60;99.90;;;;;;5135833;27;20049;-81
2022/05/25 06:42:34;;;;;;;17.05;9.70;;;13.70;99.90;;;;;;5117102;27;20047;-80
2022/05/25 06:45:00;;;;;;;10.50;8.50;;;13.80;99.90;;;;;;5151246;27;20047;-81
2022/05/25 06:47:27;;;;;;;14.00;8.68;;;13.90;99.90;;;;;;5156243;27;20042;-82
2022/05/25 06:49:54;;;;;;;9.95;8.18;;;13.90;99.90;;;;;;5120326;27;20042;-81
2022/05/25 06:52:22;;;;;;;12.82;8.27;;;14.00;99.90;;;;;;5155323;27;20049;-83
2022/05/25 06:54:55;;;;;;;18.08;8.18;;;14.10;99.90;;;;;;5120379;27;20281;-80
2022/05/25 06:57:21;;;;;;;11.43;8.02;;;14.10;99.90;;;;;;5137527;27;20043;-81
2022/05/25 06:59:46;;;;;;;11.10;8.05;;;14.20;99.90;;;;;;5118831;27;20112;-79
2022/05/25 07:02:12;;;;;;;11.50;8.18;;;14.30;99.90;;;;;;5116935;27;20043;-80
2022/05/25 07:04:38;;;;;;;11.07;7.10;;;14.40;99.90;;;;;;5135023;27;20047;-81
2022/05/25 07:07:04;;;;;;;10.15;7.20;;;14.50;99.90;;;;;;5099077;27;20085;-81
2022/05/25 07:09:31;;;;;;;15.73;8.45;;;14.60;99.90;;;;;;5100120;27;20070;-81
2022/05/25 07:11:59;;;;;;;14.20;6.88;;;14.80;99.90;;;;;;5134995;27;20092;-80
2022/05/25 07:14:26;;;;;;;11.52;6.88;;;14.90;99.90;;;;;;5150328;27;20038;-80
2022/05/25 07:16:52;;;;;;;11.15;6.68;;;15.00;99.90;;;;;;5155194;27;20039;-80
2022/05/25 07:19:18;;;;;;;13.60;7.50;;;15.10;99.90;;;;;;5154825;27;20049;-81
2022/05/25 07:21:43;;;;;;;8.18;6.85;;;15.20;99.90;;;;;;5137175;27;20039;-80
2022/05/25 07:24:09;;;;;;;10.35;7.53;;;15.30;99.90;;;;;;5136976;27;20054;-81
2022/05/25 07:26:35;;;;;;;10.15;7.18;;;15.30;99.90;;;;;;5154610;27;20046;-80
2022/05/25 07:29:01;;;;;;;7.35;6.65;;;15.30;99.90;;;;;;5155207;27;20043;-80
2022/05/25 07:31:49;;;;;;;12.18;6.65;;;15.20;99.90;;;;;;5136669;27;20096;-80
2022/05/25 07:34:21;;;;;;;12.10;6.65;;;15.20;99.90;;;;;;5115495;27;20040;-80
2022/05/25 07:36:59;;;;;;;11.43;6.95;;;15.20;99.90;;;;;;5116584;28;20047;-80
2022/05/25 07:39:48;;;;;;;13.70;6.68;;;15.10;99.90;;;;;;5134709;27;20071;-80
2022/05/25 07:42:15;;;;;;;13.20;6.63;;;15.20;99.90;;;;;;5133025;27;20051;-81
2022/05/25 07:45:01;;;;;;;15.48;6.65;;;15.20;99.90;;;;;;5139852;27;20043;-81
2022/05/25 07:47:29;;;;;;;11.20;6.55;;;15.20;99.90;;;;;;5135975;27;20399;-81
2022/05/25 07:49:55;;;;;;;9.57;5.82;;;15.20;99.90;;;;;;5155713;27;20049;-81
2022/05/25 07:52:23;;;;;;;7.68;5.55;;;15.20;99.90;;;;;;5155218;27;20034;-80
2022/05/25 07:54:49;;;;;;;12.07;5.80;;;15.20;99.90;;;;;;5135750;27;20072;-80
2022/05/25 07:57:15;;;;;;;12.30;6.55;;;15.30;99.90;;;;;;5136428;27;20034;-81
2022/05/25 07:59:41;;;;;;;9.20;5.72;;;15.40;99.90;;;;;;5111340;28;20146;-81
2022/05/25 08:08:08;;;;;;;7.13;4.78;;;15.50;99.90;;;;;;5134481;28;20051;-79
2022/05/25 08:10:35;;;;;;;6.07;4.30;;;15.60;99.90;;;;;;5133171;28;20035;-80
2022/05/25 08:13:02;;;;;;;7.05;3.72;;;15.60;99.90;;;;;;5099098;28;20391;-80
2022/05/25 08:15:29;;;;;;;8.60;3.63;;;15.70;99.90;;;;;;5131594;27;20039;-81
2022/05/25 08:17:55;;;;;;;7.35;4.47;;;15.70;99.90;;;;;;5136417;27;20046;-81
2022/05/25 08:20:21;;;;;;;7.80;4.40;;;15.80;99.90;;;;;;5136446;27;20099;-81
2022/05/25 08:22:48;;;;;;;9.10;5.05;;;15.80;99.90;;;;;;5154020;27;20576;-82
2022/05/25 08:25:17;;;;;;;9.32;4.53;;;15.90;99.90;;;;;;5154660;27;20497;-80
2022/05/25 08:27:43;;;;;;;8.93;4.28;;;15.90;99.90;;;;;;5154964;27;20043;-81
2022/05/25 08:30:13;;;;;;;6.05;4.43;;;16.00;99.90;;;;;;5140777;27;20039;-81
2022/05/25 08:32:40;;;;;;;7.90;4.35;;;16.10;99.90;;;;;;5119701;27;20130;-80
2022/05/25 08:35:06;;;;;;;8.98;4.03;;;16.10;99.90;;;;;;5138111;27;20122;-80
2022/05/25 08:37:32;;;;;;;11.13;3.83;;;16.00;99.90;;;;;;5137104;27;20039;-81
2022/05/25 08:39:58;;;;;;;9.30;4.20;;;16.00;99.90;;;;;;5102356;27;20058;-80
2022/05/25 08:42:27;;;;;;;6.40;4.25;;;16.00;99.90;;;;;;5119358;27;20154;-82
2022/05/25 08:44:55;;;;;;;8.18;4.05;;;16.00;99.90;;;;;;5125897;27;20406;-80
2022/05/25 08:47:21;;;;;;;6.10;4.05;;;16.00;99.90;;;;;;5137837;27;20039;-82
2022/05/25 08:49:49;;;;;;;5.07;3.40;;;16.00;99.90;;;;;;5119257;27;20081;-82
2022/05/25 08:52:23;;;;;;;6.38;2.88;;;16.10;99.90;;;;;;5118436;27;20039;-80
2022/05/25 08:54:48;;;;;;;6.93;3.58;;;16.20;99.90;;;;;;5137799;27;20044;-83
2022/05/25 08:57:27;;;;;;;6.95;3.65;;;16.20;99.90;;;;;;5119326;27;20035;-81
2022/05/25 09:00:00;;;;;;;4.85;3.45;;;16.30;99.90;;;;;;5144479;27;20138;-82
2022/05/25 09:02:29;;;;;;;8.93;3.57;;;16.20;99.90;;;;;;5139718;27;20390;-80
2022/05/25 09:05:22;;;;;;;8.00;3.70;;;16.20;99.90;;;;;;5138661;27;20103;-80
2022/05/25 09:08:25;;;;;;;5.53;3.13;;;16.20;99.90;;;;;;5158021;27;20046;-80
2022/05/25 09:11:06;;;;;;;6.80;3.10;;;16.20;99.90;;;;;;5155691;27;20050;-81
2022/05/25 09:14:04;;;;;;;6.45;2.97;;;16.10;99.90;;;;;;5136574;27;20047;-80
2022/05/25 09:16:36;;;;;;;10.45;3.17;;;16.20;99.90;;;;;;5137360;27;20043;-80
2022/05/25 09:19:19;;;;;;;8.80;3.00;;;16.30;99.90;;;;;;5117891;27;20398;-81
2022/05/25 09:21:56;;;;;;;4.63;2.95;;;16.40;99.90;;;;;;5137296;27;20058;-81
2022/05/25 09:24:23;;;;;;;14.52;3.78;;;16.50;99.90;;;;;;5137115;27;20111;-80
2022/05/25 09:26:50;;;;;;;7.22;3.50;;;16.60;99.90;;;;;;5147768;27;20039;-80
2022/05/25 09:29:16;;;;;;;5.70;3.03;;;16.60;99.90;;;;;;5139249;27;20035;-80
2022/05/25 09:31:54;;;;;;;6.20;3.05;;;16.60;99.90;;;;;;5157432;27;20478;-81
2022/05/25 09:34:32;;;;;;;7.35;2.83;;;16.50;99.90;;;;;;5156948;27;20396;-81
2022/05/25 09:37:09;;;;;;;7.47;3.13;;;16.60;99.90;;;;;;5157608;27;20493;-81
2022/05/25 09:39:43;;;;;;;18.42;3.50;;;16.70;99.90;;;;;;5138980;27;20042;-80
2022/05/25 09:42:17;;;;;;;7.47;3.40;;;16.80;99.90;;;;;;5133403;27;20051;-81
2022/05/25 09:44:52;;;;;;;5.90;3.45;;;16.90;99.90;;;;;;5118219;27;20599;-81
2022/05/25 09:47:41;;;;;;;10.50;3.22;;;17.00;99.90;;;;;;5117389;27;20125;-81
2022/05/25 09:50:14;;;;;;;7.38;3.30;;;17.10;99.90;;;;;;5117040;27;20039;-81
2022/05/25 09:52:46;;;;;;;7.90;3.00;;;17.00;99.90;;;;;;5118410;27;20050;-80
2022/05/25 09:55:28;;;;;;;4.85;2.70;;;16.90;99.90;;;;;;5117398;27;20368;-81
2022/05/25 09:57:57;;;;;;;5.78;2.35;;;16.90;99.90;;;;;;5136231;27;20070;-81
2022/05/25 10:00:40;;;;;;;6.72;3.30;;;16.80;99.90;;;;;;5117739;27;20055;-80
2022/05/25 10:03:40;;;;;;;9.30;3.08;;;16.70;99.90;;;;;;5135388;27;20499;-82
2022/05/25 10:06:23;;;;;;;8.10;3.58;;;16.60;99.90;;;;;;5100410;27;20543;-81
2022/05/25 10:09:07;;;;;;;6.95;3.40;;;16.50;99.90;;;;;;5117310;27;20054;-81
2022/05/25 10:11:42;;;;;;;4.32;3.22;;;16.40;99.90;;;;;;5117869;27;20111;-81
2022/05/25 10:14:29;;;;;;;6.32;3.20;;;16.40;99.90;;;;;;5101021;27;20149;-80
2022/05/25 10:16:58;;;;;;;7.80;3.35;;;16.40;99.90;;;;;;5135385;27;20118;-82
2022/05/25 10:19:24;;;;;;;5.35;3.53;;;16.40;99.90;;;;;;5118014;27;20059;-79
2022/05/25 10:21:56;;;;;;;8.85;3.80;;;16.40;99.90;;;;;;5127392;27;20139;-81
2022/05/25 10:24:32;;;;;;;12.15;4.00;;;16.50;99.90;;;;;;5137321;27;20035;-81
2022/05/25 10:27:01;;;;;;;7.82;3.65;;;16.50;99.90;;;;;;5156749;27;20125;-79
2022/05/25 10:38:27;;;;;;;7.78;3.45;;;16.30;99.90;;;;;;5155641;27;20042;-80
2022/05/25 10:40:54;;;;;;;6.03;3.40;;;16.20;99.90;;;;;;5153112;27;20045;-80
2022/05/25 10:43:27;;;;;;;8.68;3.42;;;16.10;99.90;;;;;;5116462;27;20368;-81
2022/05/25 10:45:54;;;;;;;5.25;3.42;;;16.10;99.90;;;;;;5135299;27;20551;-82
2022/05/25 10:48:52;;;;;;;6.07;3.10;;;16.10;99.90;;;;;;5116933;27;20050;-82
2022/05/25 10:51:30;;;;;;;9.10;3.70;;;16.10;99.90;;;;;;5115903;28;20043;-81
2022/05/25 10:56:59;;;;;;;7.53;3.35;;;16.10;99.90;;;;;;5147494;27;20054;-80
2022/05/25 10:59:39;;;;;;;5.50;4.00;;;16.20;99.90;;;;;;5154747;27;20054;-80
2022/05/25 11:02:36;;;;;;;7.70;3.70;;;16.30;99.90;;;;;;5137494;27;20187;-81
2022/05/25 11:05:14;;;;;;;7.38;4.10;;;16.30;99.90;;;;;;5135766;27;20046;-84
2022/05/25 11:07:42;;;;;;;14.43;5.10;;;16.40;99.90;;;;;;5137344;27;20096;-81
2022/05/25 11:10:29;;;;;;;17.83;5.78;;;16.40;99.90;;;;;;5137882;27;20070;-81
2022/05/25 11:13:22;;;;;;;13.93;5.93;;;16.60;99.90;;;;;;5155014;27;20068;-81
2022/05/25 11:15:48;;;;;;;13.65;4.50;;;16.70;99.90;;;;;;5150175;27;20149;-81
2022/05/25 11:18:32;;;;;;;8.60;5.47;;;16.70;99.90;;;;;;5116427;27;20126;-82
2022/05/25 11:21:17;;;;;;;7.72;5.47;;;16.80;99.90;;;;;;5134776;27;20428;-80
2022/05/25 11:24:07;;;;;;;10.65;5.40;;;16.90;99.90;;;;;;5134698;27;20099;-80
2022/05/25 11:26:47;;;;;;;8.90;4.72;;;17.00;99.90;;;;;;5133860;27;20047;-81
2022/05/25 11:29:37;;;;;;;14.05;4.35;;;17.10;99.90;;;;;;5134929;27;20383;-81
2022/05/25 11:32:28;;;;;;;6.60;3.58;;;17.10;99.90;;;;;;5147238;27;20054;-80
2022/05/25 11:34:57;;;;;;;8.52;2.70;;;17.10;99.90;;;;;;5155192;27;20074;-82
2022/05/25 11:37:29;;;;;;;9.98;2.97;;;16.90;99.90;;;;;;5155158;27;20485;-80
2022/05/25 11:40:07;;;;;;;10.20;3.35;;;16.80;99.90;;;;;;5154348;27;20031;-81
2022/05/25 11:42:57;;;;;;;11.10;3.45;;;16.70;99.90;;;;;;5155389;27;20042;-80
2022/05/25 11:45:32;;;;;;;11.43;4.57;;;16.70;99.90;;;;;;5154359;27;20043;-82
2022/05/25 11:48:01;;;;;;;10.07;3.05;;;16.70;99.90;;;;;;5115296;28;20479;-80
2022/05/25 11:50:41;;;;;;;6.28;3.05;;;16.70;99.90;;;;;;5134574;28;20055;-81
2022/05/25 11:53:46;;;;;;;4.95;2.55;;;16.80;99.90;;;;;;5116186;28;20051;-86
2022/05/25 11:56:26;;;;;;;6.25;1.58;;;17.00;99.90;;;;;;5116007;28;20398;-83
2022/05/25 11:59:20;;;;;;;3.95;0.90;;;17.00;99.90;;;;;;5116539;28;20437;-81
2022/05/25 12:02:17;;;;;;;5.05;0.70;;;17.00;99.90;;;;;;5129570;27;20485;-82
2022/05/25 12:05:20;;;;;;;9.05;1.17;;;16.90;99.90;;;;;;5141012;27;20054;-84
2022/05/25 12:08:18;;;;;;;10.48;0.90;;;17.00;99.90;;;;;;5123021;27;20385;-84
2022/05/25 12:10:45;;;;;;;7.60;1.50;;;17.00;99.90;;;;;;5159357;27;20043;-83
2022/05/25 12:13:25;;;;;;;4.35;0.75;;;17.10;99.90;;;;;;5130743;27;20043;-82
2022/05/25 12:16:08;;;;;;;5.35;0.82;;;17.20;99.90;;;;;;5119279;27;20061;-82
2022/05/25 12:19:00;;;;;;;7.40;1.05;;;17.30;99.90;;;;;;5138429;27;20087;-80
2022/05/25 12:21:49;;;;;;;8.75;0.68;;;17.30;99.90;;;;;;5138417;27;20039;-81
2022/05/25 12:24:19;;;;;;;5.53;1.25;;;17.30;99.90;;;;;;5125687;27;20145;-83
2022/05/25 12:26:46;;;;;;;11.00;1.00;;;17.30;99.90;;;;;;5119816;27;20043;-81
2022/05/25 12:29:30;;;;;;;1.77;0.50;;;17.30;99.90;;;;;;5122149;27;20490;-82
2022/05/25 12:31:56;;;;;;;3.00;0.60;;;17.30;99.90;;;;;;5140307;27;20541;-81
2022/05/25 12:34:32;;;;;;;5.22;0.93;;;17.30;99.90;;;;;;5140607;27;20393;-81
2022/05/25 12:37:02;;;;;;;4.78;0.85;;;17.40;99.90;;;;;;5122669;27;20084;-82
2022/05/25 12:39:48;;;;;;;5.72;0.65;;;17.50;99.90;;;;;;5158313;27;20091;-79
2022/05/25 12:42:38;;;;;;;5.70;0.65;;;17.60;99.90;;;;;;5140972;27;20067;-80
2022/05/25 12:50:57;;;;;;;4.68;0.63;;;17.80;99.90;;;;;;5138052;27;20047;-82
2022/05/25 12:53:52;;;;;;;3.70;0.70;;;17.90;99.90;;;;;;5119395;27;20047;-85
2022/05/25 12:56:18;;;;;;;5.32;0.55;;;17.80;99.90;;;;;;5137547;27;20058;-81
2022/05/25 12:58:57;;;;;;;4.22;0.70;;;17.80;99.90;;;;;;5136856;27;20043;-82
2022/05/25 13:01:28;;;;;;;6.90;0.70;;;17.70;99.90;;;;;;5119215;27;20129;-82
2022/05/25 13:03:54;;;;;;;7.18;1.40;;;17.60;99.90;;;;;;5118579;27;20079;-82
2022/05/25 13:06:29;;;;;;;8.23;1.20;;;17.50;99.90;;;;;;5119436;27;20082;-83
2022/05/25 13:09:01;;;;;;;4.55;1.55;;;17.50;99.90;;;;;;5137494;27;20498;-83
2022/05/25 13:11:38;;;;;;;3.58;0.95;;;17.40;99.90;;;;;;5118079;27;20126;-82
2022/05/25 13:14:16;;;;;;;;;;;17.40;99.90;;;;;;5119495;27;20061;-83
2022/05/25 13:16:42;;;;;;;5.38;0.93;;;17.30;99.90;;;;;;5118703;27;19930;-81
2022/05/25 13:19:32;;;;;;;4.07;1.10;;;17.20;99.90;;;;;;5118106;27;20047;-83
2022/05/25 13:22:02;;;;;;;6.82;1.00;;;17.30;99.90;;;;;;5134958;27;20053;-82
2022/05/25 13:25:07;;;;;;;2.80;0.60;;;17.40;99.90;;;;;;5137185;27;20122;-84
2022/05/25 13:28:12;;;;;;;5.22;0.88;;;17.40;99.90;;;;;;5118880;27;20054;-83
2022/05/25 13:30:38;;;;;;;8.10;0.63;;;17.30;99.90;;;;;;5137104;27;20058;-82
2022/05/25 13:33:19;;;;;;;6.15;1.05;;;17.20;99.90;;;;;;5117578;27;20047;-81
2022/05/25 13:36:08;;;;;;;4.65;1.15;;;17.20;99.90;;;;;;5136564;27;20124;-83
2022/05/25 13:38:49;;;;;;;10.85;1.75;;;17.30;99.90;;;;;;5118560;27;20130;-83
2022/05/25 13:41:22;;;;;;;2.13;0.63;;;17.30;99.90;;;;;;5136085;27;20078;-83
2022/05/25 13:44:06;;;;;;;6.13;1.23;;;17.40;99.90;;;;;;5136597;27;20043;-80